Stanley, Wisconsin
Current Conditions -  °F | °C
As of 1:56 AM on Tuesday 27 Jan 2015 (Local Time) from KEAU Reporting Station
Overcast Overcast  
Wind Chill: 22°   Ceiling: 1800
Heat Index: 28°   Visibility: 10mi
Dew Point: 23°   Wind: 6mph
Humidity: 81%   Direction: 20°NNE
Pressure: 30.02"   Gusts: NA
Location:  44.96°N, 90.94°W
Report Text: KEAU 270756Z AUTO 02005KT 10SM OVC018 M02/M05 A3002 RMK AO2 SLP180 T10221050
Loading
Personal Weather Stations






























Interactive Weather Map New forecast layout! Learn more

10-Day Weather Forecast

Advertisements
Track Severe Weather on mobile